Flight Track Log - Related Links

Times and Time Zones

All times are in EDT time to prevent confusion due to time zone crossing. See the UCA4838 flight status page for this flight to view local times or setup timezone preferences in your user account.

Time Position Orientation Groundspeed Altitude Reporting Facility
EDT Latitude Longitude Course Direction KTS MPH feet Rate Location/Type
Fri 08:26:00 AM 41.1586 -74.0876 North  Level Estimated
Fri 08:27:00 AM 41.2252 -74.0759 North  Level Estimated
Fri 08:28:00 AM 41.2918 -74.0642 North  Level Estimated
Fri 08:29:00 AM 41.3583 -74.0525 North  Level Estimated
Fri 08:30:00 AM 41.4249 -74.0408 North  Level Estimated
Fri 08:31:00 AM 41.4915 -74.0290 North  Level Estimated
Fri 08:32:00 AM 41.5581 -74.0172 North  Level Estimated
Fri 08:33:00 AM 41.6246 -74.0054 North  Level Estimated
Fri 08:34:00 AM 41.6912 -73.9936 North  Level Estimated
Fri 08:35:00 AM 41.7578 -73.9817 North  Level Estimated
Fri 08:36:00 AM 41.8244 -73.9698 North  Level Estimated
Fri 08:37:00 AM 41.8909 -73.9579 North  Level Estimated
Fri 08:38:00 AM 41.9575 -73.9459 North  Level Estimated
Fri 08:39:00 AM 42.0241 -73.9340 North  Level Estimated
Fri 08:40:00 AM 42.0906 -73.9220 North  Level Estimated
Fri 08:41:00 AM 42.1572 -73.9100 North  Level Estimated
Fri 08:42:00 AM 42.2238 -73.8979 North  Level Estimated
Fri 08:43:00 AM 42.2903 -73.8858 North  Level Estimated
Fri 08:44:00 AM 42.3569 -73.8737 North  Level Estimated
Fri 08:45:00 AM 42.4234 -73.8616 North  Level Estimated
Fri 08:46:00 AM 42.4900 -73.8495 North  Level Estimated
Fri 08:47:00 AM 42.5566 -73.8373 North  Level Estimated
Fri 08:48:00 AM 42.6231 -73.8251 North  Level Estimated
Fri 08:49:00 AM 42.6897 -73.8129 North  Level Estimated
Fri 08:50:00 AM 42.7491 -73.8020 North  Level Estimated
Fri 08:51:00 AM 42.7491 -73.8020 304° West  Level Estimated
Fri 08:52:00 AM 42.7491 -73.8020 304° West  Level Estimated
Fri 08:53:00 AM 42.7491 -73.8020 304° West  Level Estimated
Fri 08:54:00 AM 42.7491 -73.8020 304° West  Level Estimated
Fri 08:55:00 AM 42.7491 -73.8020 304° West  Level Estimated
Fri 08:56:00 AM 42.7491 -73.8020 304° West  Level Estimated
Fri 08:57:00 AM 42.7491 -73.8020 304° West  Level Estimated
Fri 08:58:00 AM 42.7491 -73.8020 304° West  Level Estimated
Fri 08:59:00 AM 42.7491 -73.8020 304° West  Level Estimated
Fri 09:00:00 AM 42.7491 -73.8020 304° West  Level Estimated
Fri 09:01:00 AM 42.7491 -73.8020 304° West  Level Estimated
Fri 09:02:00 AM 42.7491 -73.8020 304° West  Level Estimated
Fri 09:03:00 AM 42.7491 -73.8020 304° West  Level Estimated
Fri 09:04:00 AM 42.7491 -73.8020 304° West  Level Estimated
Fri 09:05:00 AM 42.7491 -73.8020 304° West  Level Estimated
Fri 09:06:00 AM 42.7491 -73.8020 304° West  Level Estimated

Login

Don't have an account? Register now (free) for customized features, flight alerts, and more!